sensor_id;sensor_type;location;lat;lon;timestamp;pressure;altitude;pressure_sealevel;temperature;humidity
13241;BME280;6687;47.790;7.322;2023-01-26T06:11:39;99386.03;;;1.68;100.00
13241;BME280;6687;47.790;7.322;2023-01-26T06:14:06;99385.16;;;1.68;100.00
13241;BME280;6687;47.790;7.322;2023-01-26T06:16:33;99387.16;;;1.36;100.00
13241;BME280;6687;47.790;7.322;2023-01-26T06:18:59;99391.03;;;1.65;100.00
13241;BME280;6687;47.790;7.322;2023-01-26T06:21:26;99384.16;;;1.64;100.00
13241;BME280;6687;47.790;7.322;2023-01-26T06:23:53;99387.91;;;1.53;100.00
13241;BME280;6687;47.790;7.322;2023-01-26T06:26:20;99385.00;;;1.26;100.00
13241;BME280;6687;47.790;7.322;2023-01-26T06:28:50;99379.56;;;1.57;100.00
13241;BME280;6687;47.790;7.322;2023-01-26T06:31:17;99385.63;;;1.59;99.94
13241;BME280;6687;47.790;7.322;2023-01-26T06:33:45;99383.19;;;1.43;100.00
13241;BME280;6687;47.790;7.322;2023-01-26T06:36:13;99388.56;;;1.49;100.00
13241;BME280;6687;47.790;7.322;2023-01-26T06:38:45;99385.31;;;1.14;100.00
13241;BME280;6687;47.790;7.322;2023-01-26T06:41:12;99381.63;;;1.27;100.00
13241;BME280;6687;47.790;7.322;2023-01-26T06:43:39;99381.13;;;1.34;100.00
13241;BME280;6687;47.790;7.322;2023-01-26T06:46:07;99380.59;;;1.23;100.00
13241;BME280;6687;47.790;7.322;2023-01-26T06:48:34;99371.03;;;1.56;100.00
13241;BME280;6687;47.790;7.322;2023-01-26T06:51:04;99375.97;;;1.71;100.00
13241;BME280;6687;47.790;7.322;2023-01-26T06:53:33;99381.31;;;1.38;100.00
13241;BME280;6687;47.790;7.322;2023-01-26T06:56:00;99382.09;;;1.18;100.00
13241;BME280;6687;47.790;7.322;2023-01-26T06:58:26;99371.53;;;1.48;100.00
13241;BME280;6687;47.790;7.322;2023-01-26T07:00:53;99376.16;;;1.19;100.00
13241;BME280;6687;47.790;7.322;2023-01-26T07:03:22;99376.34;;;1.42;100.00
13241;BME280;6687;47.790;7.322;2023-01-26T07:05:49;99382.66;;;1.30;100.00
13241;BME280;6687;47.790;7.322;2023-01-26T07:08:16;99377.97;;;1.39;100.00
13241;BME280;6687;47.790;7.322;2023-01-26T07:10:43;99376.34;;;1.42;100.00
13241;BME280;6687;47.790;7.322;2023-01-26T07:13:10;99374.00;;;1.46;100.00
13241;BME280;6687;47.790;7.322;2023-01-26T07:15:36;99381.31;;;1.38;100.00
13241;BME280;6687;47.790;7.322;2023-01-26T07:18:03;99378.00;;;1.41;100.00
13241;BME280;6687;47.790;7.322;2023-01-26T07:20:31;99380.84;;;1.47;100.00
13241;BME280;6687;47.790;7.322;2023-01-26T07:22:59;99378.88;;;1.22;100.00
13241;BME280;6687;47.790;7.322;2023-01-26T07:25:26;99382.22;;;1.21;100.00
13241;BME280;6687;47.790;7.322;2023-01-26T07:27:56;99378.34;;;1.49;100.00
13241;BME280;6687;47.790;7.322;2023-01-26T07:30:23;99377.69;;;1.33;100.00
13241;BME280;6687;47.790;7.322;2023-01-26T07:32:50;99382.81;;;1.33;100.00
13241;BME280;6687;47.790;7.322;2023-01-26T07:35:16;99386.41;;;1.38;100.00
13241;BME280;6687;47.790;7.322;2023-01-26T07:37:45;99387.19;;;1.18;100.00
13241;BME280;6687;47.790;7.322;2023-01-26T07:40:12;99386.03;;;1.11;100.00
13241;BME280;6687;47.790;7.322;2023-01-26T07:42:38;99391.44;;;0.82;100.00
13241;BME280;6687;47.790;7.322;2023-01-26T07:45:06;99391.00;;;1.08;100.00
13241;BME280;6687;47.790;7.322;2023-01-26T07:47:33;99396.41;;;0.78;100.00
13241;BME280;6687;47.790;7.322;2023-01-26T07:50:00;99395.38;;;0.93;100.00
13241;BME280;6687;47.790;7.322;2023-01-26T07:52:27;99395.66;;;0.81;100.00
13241;BME280;6687;47.790;7.322;2023-01-26T07:54:55;99404.97;;;1.16;100.00
13241;BME280;6687;47.790;7.322;2023-01-26T07:57:22;99397.41;;;1.18;100.00
13241;BME280;6687;47.790;7.322;2023-01-26T07:59:49;99399.63;;;0.92;100.00
13241;BME280;6687;47.790;7.322;2023-01-26T08:02:16;99401.78;;;1.03;99.82
13241;BME280;6687;47.790;7.322;2023-01-26T08:04:42;99405.66;;;1.12;99.64
13241;BME280;6687;47.790;7.322;2023-01-26T08:07:09;99401.78;;;1.21;98.98
13241;BME280;6687;47.790;7.322;2023-01-26T08:09:36;99397.91;;;1.11;99.36
13241;BME280;6687;47.790;7.322;2023-01-26T08:12:04;99404.25;;;1.19;98.76
13241;BME280;6687;47.790;7.322;2023-01-26T08:14:31;99402.44;;;1.54;98.10
13241;BME280;6687;47.790;7.322;2023-01-26T08:16:58;99403.56;;;1.04;98.80
13241;BME280;6687;47.790;7.322;2023-01-26T08:19:25;99409.50;;;1.22;98.66
13241;BME280;6687;47.790;7.322;2023-01-26T08:21:52;99403.56;;;1.23;98.83
13241;BME280;6687;47.790;7.322;2023-01-26T08:24:18;99403.34;;;1.36;98.65
13241;BME280;6687;47.790;7.322;2023-01-26T08:26:45;99411.81;;;1.35;98.24
13241;BME280;6687;47.790;7.322;2023-01-26T08:29:13;99408.25;;;1.32;97.80
13241;BME280;6687;47.790;7.322;2023-01-26T08:31:40;99407.59;;;1.36;97.15
13241;BME280;6687;47.790;7.322;2023-01-26T08:34:07;99411.72;;;1.52;97.94
13241;BME280;6687;47.790;7.322;2023-01-26T08:36:33;99411.16;;;1.39;97.50
13241;BME280;6687;47.790;7.322;2023-01-26T08:39:00;99413.31;;;1.12;97.28
13241;BME280;6687;47.790;7.322;2023-01-26T08:41:28;99409.28;;;1.55;96.79
13241;BME280;6687;47.790;7.322;2023-01-26T08:43:55;99409.59;;;1.43;96.47
13241;BME280;6687;47.790;7.322;2023-01-26T08:46:25;99411.91;;;1.19;95.86
13241;BME280;6687;47.790;7.322;2023-01-26T08:48:52;99416.53;;;0.90;96.80
13241;BME280;6687;47.790;7.322;2023-01-26T08:51:19;99409.50;;;1.22;96.63
13241;BME280;6687;47.790;7.322;2023-01-26T08:53:46;99413.59;;;1.18;96.34
13241;BME280;6687;47.790;7.322;2023-01-26T08:56:12;99416.06;;;0.99;96.09
13241;BME280;6687;47.790;7.322;2023-01-26T08:58:39;99415.13;;;1.15;96.28
13241;BME280;6687;47.790;7.322;2023-01-26T09:01:07;99417.53;;;1.12;94.80
13241;BME280;6687;47.790;7.322;2023-01-26T09:03:37;99420.88;;;0.93;95.75
13241;BME280;6687;47.790;7.322;2023-01-26T09:06:05;99421.16;;;1.17;95.41
13241;BME280;6687;47.790;7.322;2023-01-26T09:08:33;99422.19;;;1.21;94.98
13241;BME280;6687;47.790;7.322;2023-01-26T09:11:00;99425.09;;;1.28;95.34
13241;BME280;6687;47.790;7.322;2023-01-26T09:13:27;99428.97;;;1.20;94.59
13241;BME280;6687;47.790;7.322;2023-01-26T09:15:53;99424.59;;;1.17;94.32
13241;BME280;6687;47.790;7.322;2023-01-26T09:18:20;99430.03;;;1.25;94.33
13241;BME280;6687;47.790;7.322;2023-01-26T09:20:48;99431.13;;;1.48;94.36
13241;BME280;6687;47.790;7.322;2023-01-26T09:23:15;99429.94;;;1.59;94.46
13241;BME280;6687;47.790;7.322;2023-01-26T09:25:43;99439.09;;;1.36;94.40
13241;BME280;6687;47.790;7.322;2023-01-26T09:28:09;99439.97;;;1.19;94.24
13241;BME280;6687;47.790;7.322;2023-01-26T09:30:36;99441.19;;;1.27;94.75
13241;BME280;6687;47.790;7.322;2023-01-26T09:33:03;99438.03;;;1.51;94.30
13241;BME280;6687;47.790;7.322;2023-01-26T09:35:31;99445.91;;;1.18;94.36
13241;BME280;6687;47.790;7.322;2023-01-26T09:37:59;99438.97;;;1.33;93.94
13241;BME280;6687;47.790;7.322;2023-01-26T09:40:34;99441.53;;;1.53;93.67
13241;BME280;6687;47.790;7.322;2023-01-26T09:43:11;99437.00;;;1.47;93.50
13241;BME280;6687;47.790;7.322;2023-01-26T09:45:47;99450.72;;;1.12;93.20
13241;BME280;6687;47.790;7.322;2023-01-26T09:48:24;99446.75;;;1.36;92.71
13241;BME280;6687;47.790;7.322;2023-01-26T09:50:59;99450.44;;;1.06;92.89
13241;BME280;6687;47.790;7.322;2023-01-26T09:53:40;99442.88;;;1.27;92.00
13241;BME280;6687;47.790;7.322;2023-01-26T09:56:14;99445.06;;;1.19;92.79
13241;BME280;6687;47.790;7.322;2023-01-26T09:58:44;99436.25;;;1.68;91.63
13241;BME280;6687;47.790;7.322;2023-01-26T10:01:16;99445.59;;;1.67;91.16
13241;BME280;6687;47.790;7.322;2023-01-26T10:03:47;99441.94;;;1.62;91.21
13241;BME280;6687;47.790;7.322;2023-01-26T10:06:21;99443.84;;;1.66;91.26
13241;BME280;6687;47.790;7.322;2023-01-26T10:08:53;99450.13;;;1.55;90.02
13241;BME280;6687;47.790;7.322;2023-01-26T10:11:25;99442.38;;;1.71;91.07
13241;BME280;6687;47.790;7.322;2023-01-26T10:14:00;99442.69;;;1.59;89.64
13241;BME280;6687;47.790;7.322;2023-01-26T10:16:28;99441.94;;;1.62;90.89
13241;BME280;6687;47.790;7.322;2023-01-26T10:18:57;99439.66;;;1.68;89.50
13241;BME280;6687;47.790;7.322;2023-01-26T10:21:31;99438.97;;;1.53;88.32
13241;BME280;6687;47.790;7.322;2023-01-26T10:24:01;99439.16;;;1.75;88.38
13241;BME280;6687;47.790;7.322;2023-01-26T10:26:30;99434.09;;;1.57;87.25
13241;BME280;6687;47.790;7.322;2023-01-26T10:28:57;99437.97;;;1.69;86.39
13241;BME280;6687;47.790;7.322;2023-01-26T10:31:26;99430.53;;;1.73;86.85
13241;BME280;6687;47.790;7.322;2023-01-26T10:33:55;99426.22;;;1.72;85.57
13241;BME280;6687;47.790;7.322;2023-01-26T10:36:22;99421.09;;;1.53;86.34
13241;BME280;6687;47.790;7.322;2023-01-26T10:38:50;99422.81;;;1.91;85.00
13241;BME280;6687;47.790;7.322;2023-01-26T10:41:28;99419.38;;;1.52;84.56
13241;BME280;6687;47.790;7.322;2023-01-26T10:43:56;99413.84;;;1.62;84.50
13241;BME280;6687;47.790;7.322;2023-01-26T10:46:29;99405.94;;;1.56;83.60
13241;BME280;6687;47.790;7.322;2023-01-26T10:48:58;99414.34;;;1.53;82.92
13241;BME280;6687;47.790;7.322;2023-01-26T10:51:28;99414.41;;;1.94;81.98
13241;BME280;6687;47.790;7.322;2023-01-26T10:54:21;99408.34;;;1.72;82.02
13241;BME280;6687;47.790;7.322;2023-01-26T10:56:51;99401.09;;;2.01;82.66
13241;BME280;6687;47.790;7.322;2023-01-26T10:59:27;99405.22;;;2.18;82.55
13241;BME280;6687;47.790;7.322;2023-01-26T11:01:56;99398.84;;;2.09;81.56
13241;BME280;6687;47.790;7.322;2023-01-26T11:04:24;99397.31;;;1.93;80.53
13241;BME280;6687;47.790;7.322;2023-01-26T11:06:52;99398.00;;;1.89;79.51
13241;BME280;6687;47.790;7.322;2023-01-26T11:09:25;99391.50;;;2.16;79.91
13241;BME280;6687;47.790;7.322;2023-01-26T11:11:59;99382.97;;;1.75;79.50
13241;BME280;6687;47.790;7.322;2023-01-26T11:14:27;99376.88;;;1.93;78.73
13241;BME280;6687;47.790;7.322;2023-01-26T11:16:59;99376.72;;;2.09;79.27
13241;BME280;6687;47.790;7.322;2023-01-26T11:19:54;99379.03;;;2.03;78.79
13241;BME280;6687;47.790;7.322;2023-01-26T11:22:29;99372.31;;;2.26;78.24
13241;BME280;6687;47.790;7.322;2023-01-26T11:25:06;99378.09;;;1.82;77.99
13241;BME280;6687;47.790;7.322;2023-01-26T11:27:48;99370.34;;;2.19;78.29
13241;BME280;6687;47.790;7.322;2023-01-26T11:30:35;99367.56;;;2.14;76.92
13241;BME280;6687;47.790;7.322;2023-01-26T11:33:14;99367.44;;;2.11;77.18
13241;BME280;6687;47.790;7.322;2023-01-26T11:35:50;99365.34;;;2.43;77.87
13241;BME280;6687;47.790;7.322;2023-01-26T11:38:31;99373.88;;;2.23;77.34
13241;BME280;6687;47.790;7.322;2023-01-26T11:41:13;99370.13;;;2.56;78.35
13241;BME280;6687;47.790;7.322;2023-01-26T11:43:56;99372.69;;;2.56;76.70
13241;BME280;6687;47.790;7.322;2023-01-26T11:46:52;99371.09;;;2.37;76.40
13241;BME280;6687;47.790;7.322;2023-01-26T11:49:36;99365.22;;;2.40;76.62
13241;BME280;6687;47.790;7.322;2023-01-26T11:52:10;99373.13;;;2.46;76.65
13241;BME280;6687;47.790;7.322;2023-01-26T11:54:59;99367.00;;;2.64;78.23
13241;BME280;6687;47.790;7.322;2023-01-26T11:57:35;99366.09;;;2.19;76.24
13241;BME280;6687;47.790;7.322;2023-01-26T12:00:13;99362.97;;;2.48;76.93
13241;BME280;6687;47.790;7.322;2023-01-26T12:02:42;99358.63;;;2.45;76.22
13241;BME280;6687;47.790;7.322;2023-01-26T12:05:14;99360.72;;;2.55;76.42
13241;BME280;6687;47.790;7.322;2023-01-26T12:07:48;99346.13;;;2.32;75.61
13241;BME280;6687;47.790;7.322;2023-01-26T12:10:22;99354.91;;;2.59;75.18
13241;BME280;6687;47.790;7.322;2023-01-26T12:12:53;99346.72;;;2.68;75.73
13241;BME280;6687;47.790;7.322;2023-01-26T12:15:26;99334.28;;;2.55;76.82
13241;BME280;6687;47.790;7.322;2023-01-26T12:17:59;99335.78;;;2.72;75.47
13241;BME280;6687;47.790;7.322;2023-01-26T12:20:32;99335.75;;;2.29;75.07
13241;BME280;6687;47.790;7.322;2023-01-26T12:23:04;99329.81;;;2.72;75.05
13241;BME280;6687;47.790;7.322;2023-01-26T12:25:35;99327.84;;;2.65;74.88
13241;BME280;6687;47.790;7.322;2023-01-26T12:28:15;99331.19;;;2.41;73.68
13241;BME280;6687;47.790;7.322;2023-01-26T12:30:54;99325.69;;;2.32;74.39
13241;BME280;6687;47.790;7.322;2023-01-26T12:33:24;99323.91;;;2.52;73.54
13241;BME280;6687;47.790;7.322;2023-01-26T12:36:10;99324.38;;;2.63;73.28
13241;BME280;6687;47.790;7.322;2023-01-26T12:38:54;99318.56;;;2.25;74.57
13241;BME280;6687;47.790;7.322;2023-01-26T12:41:30;99310.47;;;2.35;74.09
13241;BME280;6687;47.790;7.322;2023-01-26T12:44:11;99305.22;;;2.11;74.10
13241;BME280;6687;47.790;7.322;2023-01-26T12:46:46;99297.47;;;2.51;74.04
13241;BME280;6687;47.790;7.322;2023-01-26T12:49:17;99293.53;;;2.59;73.76
13241;BME280;6687;47.790;7.322;2023-01-26T12:51:50;99292.63;;;3.03;73.79
13241;BME280;6687;47.790;7.322;2023-01-26T12:54:26;99291.91;;;2.84;73.48
13241;BME280;6687;47.790;7.322;2023-01-26T12:56:59;99288.25;;;2.55;73.64
13241;BME280;6687;47.790;7.322;2023-01-26T12:59:30;99289.25;;;2.16;73.06
13241;BME280;6687;47.790;7.322;2023-01-26T13:02:00;99288.88;;;2.49;72.72
13241;BME280;6687;47.790;7.322;2023-01-26T13:04:35;99288.13;;;2.52;73.40
13241;BME280;6687;47.790;7.322;2023-01-26T13:07:03;99286.56;;;3.01;74.33
13241;BME280;6687;47.790;7.322;2023-01-26T13:10:08;99285.06;;;2.83;72.00
13241;BME280;6687;47.790;7.322;2023-01-26T13:12:46;99279.00;;;2.81;72.44
13241;BME280;6687;47.790;7.322;2023-01-26T13:15:15;99291.97;;;2.86;71.43
13241;BME280;6687;47.790;7.322;2023-01-26T13:17:52;99295.16;;;2.80;73.40
13241;BME280;6687;47.790;7.322;2023-01-26T13:20:43;99291.84;;;2.60;71.59
13241;BME280;6687;47.790;7.322;2023-01-26T13:23:37;99291.44;;;2.72;72.28
13241;BME280;6687;47.790;7.322;2023-01-26T13:29:32;99298.19;;;2.47;71.70
13241;BME280;6687;47.790;7.322;2023-01-26T13:34:47;99288.34;;;2.58;71.10
13241;BME280;6687;47.790;7.322;2023-01-26T13:37:23;99304.47;;;2.34;72.27
13241;BME280;6687;47.790;7.322;2023-01-26T13:39:56;99294.69;;;2.68;72.59
13241;BME280;6687;47.790;7.322;2023-01-26T13:42:28;99292.59;;;2.57;71.17
13241;BME280;6687;47.790;7.322;2023-01-26T13:45:03;99296.50;;;2.70;73.62
13241;BME280;6687;47.790;7.322;2023-01-26T13:47:36;99302.00;;;2.58;72.33
13241;BME280;6687;47.790;7.322;2023-01-26T13:50:27;99307.00;;;2.33;73.32
13241;BME280;6687;47.790;7.322;2023-01-26T13:52:55;99305.47;;;2.38;72.39
13241;BME280;6687;47.790;7.322;2023-01-26T13:55:24;99310.97;;;2.47;72.48
13241;BME280;6687;47.790;7.322;2023-01-26T13:58:09;99305.38;;;2.57;73.42
13241;BME280;6687;47.790;7.322;2023-01-26T14:00:36;99302.84;;;2.57;72.27
13241;BME280;6687;47.790;7.322;2023-01-26T14:03:02;99308.72;;;2.34;73.33
13241;BME280;6687;47.790;7.322;2023-01-26T14:05:31;99307.03;;;2.55;72.46
13241;BME280;6687;47.790;7.322;2023-01-26T14:07:59;99299.03;;;2.27;73.17
13241;BME280;6687;47.790;7.322;2023-01-26T14:10:27;99293.75;;;2.43;73.26
13241;BME280;6687;47.790;7.322;2023-01-26T14:13:01;99293.69;;;2.21;72.90
13241;BME280;6687;47.790;7.322;2023-01-26T14:15:30;99301.84;;;2.54;73.01
13241;BME280;6687;47.790;7.322;2023-01-26T14:17:59;99308.50;;;2.50;74.43
13241;BME280;6687;47.790;7.322;2023-01-26T14:20:29;99307.47;;;2.45;74.07
13241;BME280;6687;47.790;7.322;2023-01-26T14:23:11;99304.34;;;2.31;73.62
13241;BME280;6687;47.790;7.322;2023-01-26T14:25:39;99304.84;;;2.23;73.56
13241;BME280;6687;47.790;7.322;2023-01-26T14:28:12;99309.19;;;2.46;74.46
13241;BME280;6687;47.790;7.322;2023-01-26T14:30:40;99304.81;;;2.65;73.90
13241;BME280;6687;47.790;7.322;2023-01-26T14:33:11;99318.56;;;2.25;74.04
13241;BME280;6687;47.790;7.322;2023-01-26T14:35:39;99308.97;;;2.19;74.04
13241;BME280;6687;47.790;7.322;2023-01-26T14:38:15;99312.22;;;2.58;74.73
13241;BME280;6687;47.790;7.322;2023-01-26T14:40:45;99314.97;;;2.19;74.76
13241;BME280;6687;47.790;7.322;2023-01-26T14:43:13;99319.75;;;2.12;74.36
13241;BME280;6687;47.790;7.322;2023-01-26T14:45:43;99322.69;;;2.42;76.30
13241;BME280;6687;47.790;7.322;2023-01-26T14:48:12;99329.28;;;2.16;76.35
13241;BME280;6687;47.790;7.322;2023-01-26T14:50:42;99325.81;;;1.73;75.03
13241;BME280;6687;47.790;7.322;2023-01-26T14:53:17;99319.88;;;1.94;74.53
13241;BME280;6687;47.790;7.322;2023-01-26T14:55:46;99325.94;;;2.38;76.06
13241;BME280;6687;47.790;7.322;2023-01-26T14:58:17;99323.13;;;1.70;75.16
13241;BME280;6687;47.790;7.322;2023-01-26T15:00:47;99325.47;;;2.06;74.91
13241;BME280;6687;47.790;7.322;2023-01-26T15:03:21;99330.00;;;1.92;74.97
13241;BME280;6687;47.790;7.322;2023-01-26T15:06:03;99330.41;;;2.23;74.31
13241;BME280;6687;47.790;7.322;2023-01-26T15:08:31;99328.09;;;2.29;75.15
13241;BME280;6687;47.790;7.322;2023-01-26T15:10:59;99340.63;;;2.23;75.16
13241;BME280;6687;47.790;7.322;2023-01-26T15:13:43;99332.66;;;1.94;74.92
13241;BME280;6687;47.790;7.322;2023-01-26T15:16:14;99334.53;;;2.61;76.90
13241;BME280;6687;47.790;7.322;2023-01-26T15:18:42;99336.03;;;2.35;75.05
13241;BME280;6687;47.790;7.322;2023-01-26T15:21:11;99336.28;;;2.20;75.31
13241;BME280;6687;47.790;7.322;2023-01-26T15:23:41;99335.53;;;2.02;74.75
13241;BME280;6687;47.790;7.322;2023-01-26T15:26:12;99331.63;;;1.90;75.32
13241;BME280;6687;47.790;7.322;2023-01-26T15:28:40;99338.19;;;2.05;75.39
13241;BME280;6687;47.790;7.322;2023-01-26T15:31:09;99338.66;;;2.15;76.27
13241;BME280;6687;47.790;7.322;2023-01-26T15:33:47;99330.66;;;1.48;75.83
13241;BME280;6687;47.790;7.322;2023-01-26T15:36:29;99334.88;;;1.86;76.28
13241;BME280;6687;47.790;7.322;2023-01-26T15:39:01;99331.47;;;1.66;75.74
13241;BME280;6687;47.790;7.322;2023-01-26T15:41:28;99327.53;;;1.94;75.27
13241;BME280;6687;47.790;7.322;2023-01-26T15:43:56;99334.00;;;1.47;75.51
13241;BME280;6687;47.790;7.322;2023-01-26T15:46:24;99328.31;;;1.52;75.39
13241;BME280;6687;47.790;7.322;2023-01-26T15:48:50;99329.69;;;1.85;74.95
13241;BME280;6687;47.790;7.322;2023-01-26T15:51:17;99330.44;;;1.63;75.37
13241;BME280;6687;47.790;7.322;2023-01-26T15:53:44;99332.94;;;1.61;75.66
13241;BME280;6687;47.790;7.322;2023-01-26T15:56:14;99334.84;;;1.65;75.91
13241;BME280;6687;47.790;7.322;2023-01-26T15:58:41;99338.84;;;1.79;75.29
13241;BME280;6687;47.790;7.322;2023-01-26T16:01:12;99336.44;;;1.63;75.64
13241;BME280;6687;47.790;7.322;2023-01-26T16:03:39;99333.81;;;1.42;75.61
13241;BME280;6687;47.790;7.322;2023-01-26T16:06:14;99339.19;;;1.68;75.97
13241;BME280;6687;47.790;7.322;2023-01-26T16:08:43;99332.59;;;1.73;75.04
13241;BME280;6687;47.790;7.322;2023-01-26T16:11:10;99339.28;;;1.69;75.86
13241;BME280;6687;47.790;7.322;2023-01-26T16:13:39;99340.47;;;1.77;75.76
13241;BME280;6687;47.790;7.322;2023-01-26T16:16:09;99345.50;;;1.95;76.83
13241;BME280;6687;47.790;7.322;2023-01-26T16:18:36;99343.56;;;1.51;75.99
13241;BME280;6687;47.790;7.322;2023-01-26T16:21:13;99334.28;;;1.53;75.63
13241;BME280;6687;47.790;7.322;2023-01-26T16:23:41;99336.63;;;1.87;75.64
13241;BME280;6687;47.790;7.322;2023-01-26T16:26:08;99342.81;;;1.73;75.89
13241;BME280;6687;47.790;7.322;2023-01-26T16:28:36;99338.59;;;1.34;76.71
13241;BME280;6687;47.790;7.322;2023-01-26T16:31:11;99331.06;;;1.57;76.59
13241;BME280;6687;47.790;7.322;2023-01-26T16:33:38;99337.78;;;1.55;76.35
13241;BME280;6687;47.790;7.322;2023-01-26T16:36:07;99332.81;;;1.58;75.76
13241;BME280;6687;47.790;7.322;2023-01-26T16:38:34;99332.03;;;1.39;76.75
13241;BME280;6687;47.790;7.322;2023-01-26T16:41:01;99336.56;;;1.47;75.89
13241;BME280;6687;47.790;7.322;2023-01-26T16:43:28;99334.84;;;1.65;75.55
13241;BME280;6687;47.790;7.322;2023-01-26T16:45:55;99340.00;;;1.28;76.25
13241;BME280;6687;47.790;7.322;2023-01-26T16:48:24;99343.69;;;1.73;76.08
13241;BME280;6687;47.790;7.322;2023-01-26T16:50:53;99341.81;;;1.69;76.05
13241;BME280;6687;47.790;7.322;2023-01-26T16:53:25;99344.22;;;1.86;75.82
13241;BME280;6687;47.790;7.322;2023-01-26T16:55:52;99346.25;;;1.54;75.74
13241;BME280;6687;47.790;7.322;2023-01-26T16:58:19;99341.34;;;1.39;77.63
13241;BME280;6687;47.790;7.322;2023-01-26T17:00:47;99345.69;;;1.22;76.36
13241;BME280;6687;47.790;7.322;2023-01-26T17:03:14;99339.56;;;1.18;76.40
13241;BME280;6687;47.790;7.322;2023-01-26T17:05:42;99339.25;;;1.30;76.15
13241;BME280;6687;47.790;7.322;2023-01-26T17:08:08;99335.03;;;1.50;76.78
13241;BME280;6687;47.790;7.322;2023-01-26T17:10:35;99340.03;;;1.29;76.75
13241;BME280;6687;47.790;7.322;2023-01-26T17:13:02;99336.44;;;1.44;75.84
13241;BME280;6687;47.790;7.322;2023-01-26T17:15:30;99341.53;;;1.63;75.97
13241;BME280;6687;47.790;7.322;2023-01-26T17:17:56;99336.56;;;1.27;76.55
13241;BME280;6687;47.790;7.322;2023-01-26T17:20:23;99339.38;;;1.53;75.56
13241;BME280;6687;47.790;7.322;2023-01-26T17:22:52;99338.88;;;1.60;76.02
13241;BME280;6687;47.790;7.322;2023-01-26T17:25:19;99338.19;;;1.84;77.90
13241;BME280;6687;47.790;7.322;2023-01-26T17:27:46;99342.59;;;1.10;76.60
13241;BME280;6687;47.790;7.322;2023-01-26T17:30:16;99338.03;;;1.22;76.28
13241;BME280;6687;47.790;7.322;2023-01-26T17:32:43;99341.00;;;1.51;76.35
13241;BME280;6687;47.790;7.322;2023-01-26T17:35:10;99340.41;;;1.56;75.70
13241;BME280;6687;47.790;7.322;2023-01-26T17:37:36;99343.34;;;1.27;76.49
13241;BME280;6687;47.790;7.322;2023-01-26T17:40:07;99347.13;;;1.15;76.51
13241;BME280;6687;47.790;7.322;2023-01-26T17:42:34;99342.81;;;1.34;75.42
13241;BME280;6687;47.790;7.322;2023-01-26T17:45:01;99352.22;;;1.54;77.52
13241;BME280;6687;47.790;7.322;2023-01-26T17:47:30;99349.06;;;1.41;76.38
13241;BME280;6687;47.790;7.322;2023-01-26T17:49:57;99345.31;;;1.52;76.03
13241;BME280;6687;47.790;7.322;2023-01-26T17:52:24;99352.44;;;1.39;76.51
13241;BME280;6687;47.790;7.322;2023-01-26T17:54:51;99347.78;;;1.31;77.07
13241;BME280;6687;47.790;7.322;2023-01-26T17:57:19;99353.91;;;1.34;77.51
13241;BME280;6687;47.790;7.322;2023-01-26T17:59:46;99351.00;;;1.27;77.93
13241;BME280;6687;47.790;7.322;2023-01-26T18:02:13;99355.50;;;1.32;78.28
13241;BME280;6687;47.790;7.322;2023-01-26T18:04:39;99354.97;;;1.20;77.57
13241;BME280;6687;47.790;7.322;2023-01-26T18:07:06;99359.47;;;1.26;78.13
13241;BME280;6687;47.790;7.322;2023-01-26T18:09:33;99357.31;;;1.15;78.21
13241;BME280;6687;47.790;7.322;2023-01-26T18:12:00;99364.47;;;1.05;78.07
13241;BME280;6687;47.790;7.322;2023-01-26T18:14:28;99357.31;;;1.15;78.24
13241;BME280;6687;47.790;7.322;2023-01-26T18:16:54;99361.44;;;0.94;78.35
13241;BME280;6687;47.790;7.322;2023-01-26T18:19:21;99362.13;;;0.91;78.06
13241;BME280;6687;47.790;7.322;2023-01-26T18:21:48;99354.09;;;1.19;78.48
13241;BME280;6687;47.790;7.322;2023-01-26T18:24:15;99345.16;;;1.10;77.71
13241;BME280;6687;47.790;7.322;2023-01-26T18:26:42;99356.91;;;0.70;79.21
13241;BME280;6687;47.790;7.322;2023-01-26T18:29:09;99356.09;;;0.89;78.90
13241;BME280;6687;47.790;7.322;2023-01-26T18:31:38;99352.66;;;1.07;78.95
13241;BME280;6687;47.790;7.322;2023-01-26T18:34:06;99350.63;;;0.99;79.48
13241;BME280;6687;47.790;7.322;2023-01-26T18:36:33;99354.41;;;1.08;79.76
13241;BME280;6687;47.790;7.322;2023-01-26T18:39:01;99352.50;;;1.22;79.09
13241;BME280;6687;47.790;7.322;2023-01-26T18:41:28;99349.03;;;1.21;80.11
13241;BME280;6687;47.790;7.322;2023-01-26T18:43:56;99354.97;;;1.20;80.04
13241;BME280;6687;47.790;7.322;2023-01-26T18:46:25;99355.97;;;1.24;80.26
13241;BME280;6687;47.790;7.322;2023-01-26T18:48:54;99355.31;;;0.90;80.88
13241;BME280;6687;47.790;7.322;2023-01-26T18:51:25;99353.09;;;1.16;81.21
13241;BME280;6687;47.790;7.322;2023-01-26T18:53:52;99353.50;;;1.07;80.75
13241;BME280;6687;47.790;7.322;2023-01-26T18:56:18;99357.84;;;0.90;80.63
13241;BME280;6687;47.790;7.322;2023-01-26T18:58:45;99354.53;;;1.11;81.82
13241;BME280;6687;47.790;7.322;2023-01-26T19:01:13;99358.34;;;0.83;81.17
13241;BME280;6687;47.790;7.322;2023-01-26T19:03:41;99353.91;;;0.79;81.51
13241;BME280;6687;47.790;7.322;2023-01-26T19:06:14;99357.56;;;0.84;81.44
13241;BME280;6687;47.790;7.322;2023-01-26T19:08:43;99350.53;;;1.16;81.28
13241;BME280;6687;47.790;7.322;2023-01-26T19:11:10;99351.53;;;0.82;81.67
13241;BME280;6687;47.790;7.322;2023-01-26T19:13:36;99350.50;;;0.78;82.43
13241;BME280;6687;47.790;7.322;2023-01-26T19:16:06;99342.41;;;1.25;81.89
13241;BME280;6687;47.790;7.322;2023-01-26T19:18:33;99354.53;;;1.11;83.87
13241;BME280;6687;47.790;7.322;2023-01-26T19:21:01;99348.44;;;0.89;82.26
13241;BME280;6687;47.790;7.322;2023-01-26T19:23:30;99344.22;;;1.47;82.03
13241;BME280;6687;47.790;7.322;2023-01-26T19:25:57;99353.19;;;1.19;82.09
13241;BME280;6687;47.790;7.322;2023-01-26T19:28:24;99347.81;;;1.13;82.43
13241;BME280;6687;47.790;7.322;2023-01-26T19:30:51;99357.63;;;1.04;83.14
13241;BME280;6687;47.790;7.322;2023-01-26T19:33:17;99351.91;;;1.09;83.33
13241;BME280;6687;47.790;7.322;2023-01-26T19:35:53;99351.78;;;1.06;82.67
13241;BME280;6687;47.790;7.322;2023-01-26T19:38:20;99352.53;;;1.23;82.08
13241;BME280;6687;47.790;7.322;2023-01-26T19:40:50;99356.22;;;1.10;82.09
13241;BME280;6687;47.790;7.322;2023-01-26T19:43:17;99349.72;;;1.17;81.83
13241;BME280;6687;47.790;7.322;2023-01-26T19:45:48;99359.25;;;0.84;82.16
13241;BME280;6687;47.790;7.322;2023-01-26T19:48:17;99358.19;;;1.16;81.85
13241;BME280;6687;47.790;7.322;2023-01-26T19:50:55;99358.19;;;1.16;81.60
13241;BME280;6687;47.790;7.322;2023-01-26T19:53:22;99349.91;;;1.02;83.20